Riverside, New Mexico
Current Conditions -  °F | °C
As of 6:15 AM on Friday 31 Oct 2014 (Local Time) from KLAM Reporting Station
Clear Clear  
Wind Chill: 37°   Ceiling: Unl
Heat Index: 42°   Visibility: 10mi
Dew Point: 23°   Wind: 9mph
Humidity: 47%   Direction: 220°SW
Pressure: 30.46"   Gusts: NA
Location:  35.9775°N, 106.158°W
Report Text: KLAM 311215Z AUTO 22008KT 10SM CLR 06/M05 A3046 RMK AO2 T00561050
Loading
Personal Weather Stations






























Interactive Weather Map
Tropical Storm Tracking
New forecast layout! Learn more

10-Day Weather Forecast

Advertisements
Track Severe Weather on mobile